Main page
METAR-TAF:

METAR-TAF

Airports :

London Biggin Hill Airport

London Biggin Hill, England

latitude: 51-19N, longitude: 000-02E, elevation: 183 m

Current weather observation

The report was made 35 minutes ago, at 21:20 UTC
Wind 8 kt from the West/Southwest, varying between South/Southwest and West
Temperature 13°C
Humidity 77%
Pressure 1018 hPa
Visibility 10 km or more
no clouds below 1500 m and no cumulonimbus

METAR: EGKB 252120Z 25008KT 210V280 CAVOK 13/09 Q1018

Time: 22:55 (21:55 UTC)

Forecast

The report was made 5 hours and 0 minutes ago, at 16:55 UTC
Forecast valid from 25 at 18 UTC to 25 at 22 UTC
Wind 9 kt from the West
Visibility 10 km or more
Scattered clouds at a height of 4000 ft

TAF: EGKB 251655Z 2518/2522 26009KT 9999 SCT040

Weather observations and forecasts of more than 4000 airports (METAR and TAF reports).

The available stations are represented by yellow and red dots on the map.

Hover mouse over dot to see the name of the station.

Then click to see weather observations and forecasts.

To change the map : click on the green buttons with a black cross to zoom in, on the green button with a dash to zoom out, or on the green arrows for adjacent maps.


METAR-TAF: